sensor_id;sensor_type;location;lat;lon;timestamp;pressure;altitude;pressure_sealevel;temperature;humidity
48210;BME280;33999;52.252;9.616;2022-08-19T00:02:13;100307.41;;;18.80;84.44
48210;BME280;33999;52.252;9.616;2022-08-19T00:05:15;100306.75;;;18.78;84.74
48210;BME280;33999;52.252;9.616;2022-08-19T00:08:17;100308.63;;;18.77;84.74
48210;BME280;33999;52.252;9.616;2022-08-19T00:11:19;100309.47;;;18.78;84.94
48210;BME280;33999;52.252;9.616;2022-08-19T00:14:26;100307.78;;;18.77;84.82
48210;BME280;33999;52.252;9.616;2022-08-19T00:17:28;100307.78;;;18.77;84.86
48210;BME280;33999;52.252;9.616;2022-08-19T00:20:30;100319.66;;;18.76;85.15
48210;BME280;33999;52.252;9.616;2022-08-19T00:23:32;100306.75;;;18.78;85.42
48210;BME280;33999;52.252;9.616;2022-08-19T00:26:37;100297.03;;;18.83;85.37
48210;BME280;33999;52.252;9.616;2022-08-19T00:29:39;100287.19;;;18.82;85.24
48210;BME280;33999;52.252;9.616;2022-08-19T00:32:40;100276.09;;;18.84;84.94
48210;BME280;33999;52.252;9.616;2022-08-19T00:35:42;100269.81;;;18.83;84.77
48210;BME280;33999;52.252;9.616;2022-08-19T00:38:44;100271.00;;;18.81;84.73
48210;BME280;33999;52.252;9.616;2022-08-19T00:41:47;100273.94;;;18.79;84.54
48210;BME280;33999;52.252;9.616;2022-08-19T00:44:50;100279.84;;;18.75;84.64
48210;BME280;33999;52.252;9.616;2022-08-19T00:47:52;100276.47;;;18.73;84.43
48210;BME280;33999;52.252;9.616;2022-08-19T00:50:54;100271.38;;;18.69;84.49
48210;BME280;33999;52.252;9.616;2022-08-19T00:53:58;100266.28;;;18.66;84.55
48210;BME280;33999;52.252;9.616;2022-08-19T00:57:02;100266.47;;;18.65;84.71
48210;BME280;33999;52.252;9.616;2022-08-19T01:00:09;100251.50;;;18.61;84.75
48210;BME280;33999;52.252;9.616;2022-08-19T01:03:16;100249.34;;;18.56;85.09
48210;BME280;33999;52.252;9.616;2022-08-19T01:06:20;100249.66;;;18.53;84.98
48210;BME280;33999;52.252;9.616;2022-08-19T01:09:22;100247.13;;;18.52;85.09
48210;BME280;33999;52.252;9.616;2022-08-19T01:12:23;100249.53;;;18.46;85.21
48210;BME280;33999;52.252;9.616;2022-08-19T01:15:31;100245.09;;;18.45;85.39
48210;BME280;33999;52.252;9.616;2022-08-19T01:18:38;100246.28;;;18.43;85.49
48210;BME280;33999;52.252;9.616;2022-08-19T01:21:46;100239.16;;;18.42;85.60
48210;BME280;33999;52.252;9.616;2022-08-19T01:24:51;100227.81;;;18.38;85.62
48210;BME280;33999;52.252;9.616;2022-08-19T01:27:58;100226.44;;;18.34;85.68
48210;BME280;33999;52.252;9.616;2022-08-19T01:31:18;100233.06;;;18.32;85.70
48210;BME280;33999;52.252;9.616;2022-08-19T01:34:28;100243.63;;;18.27;85.97
48210;BME280;33999;52.252;9.616;2022-08-19T01:37:30;100242.59;;;18.28;86.14
48210;BME280;33999;52.252;9.616;2022-08-19T01:40:42;100232.75;;;18.27;86.34
48210;BME280;33999;52.252;9.616;2022-08-19T01:43:44;100226.63;;;18.24;86.64
48210;BME280;33999;52.252;9.616;2022-08-19T01:47:06;100219.50;;;18.23;86.87
48210;BME280;33999;52.252;9.616;2022-08-19T01:50:10;100218.69;;;18.23;87.07
48210;BME280;33999;52.252;9.616;2022-08-19T01:53:12;100216.47;;;18.18;87.05
48210;BME280;33999;52.252;9.616;2022-08-19T01:56:13;100215.78;;;18.16;87.27
48210;BME280;33999;52.252;9.616;2022-08-19T01:59:17;100205.94;;;18.15;87.54
48210;BME280;33999;52.252;9.616;2022-08-19T02:02:20;100205.94;;;18.15;87.82
48210;BME280;33999;52.252;9.616;2022-08-19T02:05:21;100205.94;;;18.15;87.67
48210;BME280;33999;52.252;9.616;2022-08-19T02:08:23;100215.31;;;18.13;87.86
48210;BME280;33999;52.252;9.616;2022-08-19T02:11:31;100213.91;;;18.17;88.15
48210;BME280;33999;52.252;9.616;2022-08-19T02:14:35;100217.47;;;18.17;88.10
48210;BME280;33999;52.252;9.616;2022-08-19T02:17:38;100213.91;;;18.17;88.36
48210;BME280;33999;52.252;9.616;2022-08-19T02:20:40;100211.03;;;18.18;87.89
48210;BME280;33999;52.252;9.616;2022-08-19T02:23:43;100205.41;;;18.20;88.12
48210;BME280;33999;52.252;9.616;2022-08-19T02:26:45;100211.88;;;18.19;88.08
48210;BME280;33999;52.252;9.616;2022-08-19T02:29:48;100209.84;;;18.21;87.94
48210;BME280;33999;52.252;9.616;2022-08-19T02:32:51;100210.19;;;18.18;87.94
48210;BME280;33999;52.252;9.616;2022-08-19T02:35:52;100203.22;;;18.15;88.01
48210;BME280;33999;52.252;9.616;2022-08-19T02:38:54;100205.94;;;18.15;87.97
48210;BME280;33999;52.252;9.616;2022-08-19T02:41:56;100203.56;;;18.12;88.05
48210;BME280;33999;52.252;9.616;2022-08-19T02:44:58;100201.19;;;18.09;88.00
48210;BME280;33999;52.252;9.616;2022-08-19T02:48:01;100220.22;;;18.09;87.96
48210;BME280;33999;52.252;9.616;2022-08-19T02:51:05;100214.97;;;18.08;88.27
48210;BME280;33999;52.252;9.616;2022-08-19T02:54:09;100218.19;;;18.11;88.26
48210;BME280;33999;52.252;9.616;2022-08-19T02:57:11;100210.03;;;18.11;88.33
48210;BME280;33999;52.252;9.616;2022-08-19T03:00:13;100215.94;;;18.15;88.12
48210;BME280;33999;52.252;9.616;2022-08-19T03:03:16;100206.97;;;18.14;88.21
48210;BME280;33999;52.252;9.616;2022-08-19T03:06:18;100222.25;;;18.15;88.08
48210;BME280;33999;52.252;9.616;2022-08-19T03:09:20;100214.28;;;18.14;88.00
48210;BME280;33999;52.252;9.616;2022-08-19T03:12:22;100207.63;;;18.16;88.28
48210;BME280;33999;52.252;9.616;2022-08-19T03:15:24;100221.38;;;18.15;87.85
48210;BME280;33999;52.252;9.616;2022-08-19T03:18:25;100233.13;;;18.15;88.17
48210;BME280;33999;52.252;9.616;2022-08-19T03:21:31;100235.16;;;18.13;88.03
48210;BME280;33999;52.252;9.616;2022-08-19T03:24:33;100225.50;;;18.11;88.25
48210;BME280;33999;52.252;9.616;2022-08-19T03:27:35;100229.41;;;18.08;88.37
48210;BME280;33999;52.252;9.616;2022-08-19T03:30:38;100230.41;;;18.07;88.56
48210;BME280;33999;52.252;9.616;2022-08-19T03:33:44;100229.75;;;18.05;88.31
48210;BME280;33999;52.252;9.616;2022-08-19T03:36:46;100223.81;;;18.01;88.46
48210;BME280;33999;52.252;9.616;2022-08-19T03:39:48;100224.84;;;18.00;88.82
48210;BME280;33999;52.252;9.616;2022-08-19T03:42:50;100231.13;;;18.01;88.78
48210;BME280;33999;52.252;9.616;2022-08-19T03:46:04;100232.31;;;17.98;88.47
48210;BME280;33999;52.252;9.616;2022-08-19T03:49:06;100236.38;;;17.94;88.84
48210;BME280;33999;52.252;9.616;2022-08-19T03:52:10;100241.16;;;17.92;88.77
48210;BME280;33999;52.252;9.616;2022-08-19T03:55:13;100241.31;;;17.91;88.76
48210;BME280;33999;52.252;9.616;2022-08-19T03:58:15;100245.06;;;17.90;88.94
48210;BME280;33999;52.252;9.616;2022-08-19T04:01:19;100251.69;;;17.87;89.01
48210;BME280;33999;52.252;9.616;2022-08-19T04:04:36;100245.56;;;17.85;88.73
48210;BME280;33999;52.252;9.616;2022-08-19T04:07:38;100262.03;;;17.84;88.97
48210;BME280;33999;52.252;9.616;2022-08-19T04:10:40;100262.22;;;17.82;89.25
48210;BME280;33999;52.252;9.616;2022-08-19T04:13:43;100271.56;;;17.79;89.26
48210;BME280;33999;52.252;9.616;2022-08-19T04:16:47;100267.09;;;17.78;89.22
48210;BME280;33999;52.252;9.616;2022-08-19T04:19:49;100255.72;;;17.75;89.30
48210;BME280;33999;52.252;9.616;2022-08-19T04:22:51;100258.59;;;17.73;89.16
48210;BME280;33999;52.252;9.616;2022-08-19T04:25:53;100248.25;;;17.69;88.97
48210;BME280;33999;52.252;9.616;2022-08-19T04:28:55;100249.28;;;17.68;89.24
48210;BME280;33999;52.252;9.616;2022-08-19T04:31:57;100245.03;;;17.65;89.08
48210;BME280;33999;52.252;9.616;2022-08-19T04:34:59;100239.25;;;17.60;89.28
48210;BME280;33999;52.252;9.616;2022-08-19T04:38:20;100244.84;;;17.58;89.17
48210;BME280;33999;52.252;9.616;2022-08-19T04:41:25;100244.34;;;17.55;89.28
48210;BME280;33999;52.252;9.616;2022-08-19T04:44:45;100248.25;;;17.52;89.38
48210;BME280;33999;52.252;9.616;2022-08-19T04:47:47;100255.22;;;17.47;89.50
48210;BME280;33999;52.252;9.616;2022-08-19T04:51:00;100259.81;;;17.46;89.45
48210;BME280;33999;52.252;9.616;2022-08-19T04:54:03;100254.69;;;17.43;89.37
48210;BME280;33999;52.252;9.616;2022-08-19T04:57:07;100257.94;;;17.38;89.33
48210;BME280;33999;52.252;9.616;2022-08-19T05:00:10;100260.78;;;17.37;89.38
48210;BME280;33999;52.252;9.616;2022-08-19T05:03:12;100267.91;;;17.38;89.50
48210;BME280;33999;52.252;9.616;2022-08-19T05:06:17;100260.63;;;17.38;89.41
48210;BME280;33999;52.252;9.616;2022-08-19T05:09:19;100267.91;;;17.38;89.46
48210;BME280;33999;52.252;9.616;2022-08-19T05:12:22;100256.91;;;17.39;89.10
48210;BME280;33999;52.252;9.616;2022-08-19T05:15:30;100252.16;;;17.42;88.92
48210;BME280;33999;52.252;9.616;2022-08-19T05:18:32;100247.72;;;17.41;88.75
48210;BME280;33999;52.252;9.616;2022-08-19T05:21:53;100242.97;;;17.43;88.79
48210;BME280;33999;52.252;9.616;2022-08-19T05:25:16;100247.56;;;17.50;88.99
48210;BME280;33999;52.252;9.616;2022-08-19T05:28:20;100246.22;;;17.54;88.92
48210;BME280;33999;52.252;9.616;2022-08-19T05:31:22;100246.22;;;17.54;88.83
48210;BME280;33999;52.252;9.616;2022-08-19T05:34:25;100249.78;;;17.55;88.74
48210;BME280;33999;52.252;9.616;2022-08-19T05:37:27;100253.00;;;17.58;88.65
48210;BME280;33999;52.252;9.616;2022-08-19T05:40:29;100254.03;;;17.57;88.88
48210;BME280;33999;52.252;9.616;2022-08-19T05:43:31;100243.84;;;17.59;88.60
48210;BME280;33999;52.252;9.616;2022-08-19T05:46:32;100247.25;;;17.62;88.38
48210;BME280;33999;52.252;9.616;2022-08-19T05:49:35;100246.06;;;17.64;88.43
48210;BME280;33999;52.252;9.616;2022-08-19T05:52:37;100247.41;;;17.68;88.13
48210;BME280;33999;52.252;9.616;2022-08-19T05:55:46;100247.94;;;17.72;87.98
48210;BME280;33999;52.252;9.616;2022-08-19T05:58:47;100248.44;;;17.75;87.73
48210;BME280;33999;52.252;9.616;2022-08-19T06:01:50;100254.22;;;17.80;87.55
48210;BME280;33999;52.252;9.616;2022-08-19T06:04:52;100250.31;;;17.83;87.45
48210;BME280;33999;52.252;9.616;2022-08-19T06:07:54;100257.63;;;17.91;87.32
48210;BME280;33999;52.252;9.616;2022-08-19T06:10:56;100259.97;;;18.02;86.74
48210;BME280;33999;52.252;9.616;2022-08-19T06:14:01;100260.59;;;18.37;85.13
48210;BME280;33999;52.252;9.616;2022-08-19T06:17:03;100254.22;;;18.69;83.16
48210;BME280;33999;52.252;9.616;2022-08-19T06:20:10;100260.13;;;18.81;82.31
48210;BME280;33999;52.252;9.616;2022-08-19T06:23:14;100254.00;;;18.79;82.43
48210;BME280;33999;52.252;9.616;2022-08-19T06:26:19;100263.84;;;18.88;82.15
48210;BME280;33999;52.252;9.616;2022-08-19T06:29:23;100285.25;;;18.91;81.82
48210;BME280;33999;52.252;9.616;2022-08-19T06:32:25;100284.25;;;18.92;81.88
48210;BME280;33999;52.252;9.616;2022-08-19T06:35:27;100285.56;;;18.96;81.59
48210;BME280;33999;52.252;9.616;2022-08-19T06:38:31;100278.56;;;19.02;81.54
48210;BME280;33999;52.252;9.616;2022-08-19T06:41:44;100292.41;;;18.92;81.29
48210;BME280;33999;52.252;9.616;2022-08-19T06:44:52;100299.69;;;18.92;81.27
48210;BME280;33999;52.252;9.616;2022-08-19T06:47:54;100296.59;;;19.34;80.08
48210;BME280;33999;52.252;9.616;2022-08-19T06:50:57;100302.53;;;19.69;78.22
48210;BME280;33999;52.252;9.616;2022-08-19T06:53:59;100301.13;;;19.73;77.50
48210;BME280;33999;52.252;9.616;2022-08-19T06:57:02;100297.41;;;19.66;77.64
48210;BME280;33999;52.252;9.616;2022-08-19T07:00:05;100303.66;;;19.51;78.00
48210;BME280;33999;52.252;9.616;2022-08-19T07:03:13;100308.13;;;19.44;78.46
48210;BME280;33999;52.252;9.616;2022-08-19T07:06:17;100315.13;;;19.39;78.46
48210;BME280;33999;52.252;9.616;2022-08-19T07:09:42;100321.78;;;19.36;78.67
48210;BME280;33999;52.252;9.616;2022-08-19T07:12:51;100313.09;;;19.32;79.10
48210;BME280;33999;52.252;9.616;2022-08-19T07:15:53;100318.38;;;19.34;79.51
48210;BME280;33999;52.252;9.616;2022-08-19T07:18:55;100332.00;;;19.34;79.04
48210;BME280;33999;52.252;9.616;2022-08-19T07:21:58;100341.53;;;19.30;79.27
48210;BME280;33999;52.252;9.616;2022-08-19T07:25:03;100332.72;;;19.28;78.75
48210;BME280;33999;52.252;9.616;2022-08-19T07:28:05;100342.59;;;19.29;78.74
48210;BME280;33999;52.252;9.616;2022-08-19T07:31:24;100347.88;;;19.30;78.63
48210;BME280;33999;52.252;9.616;2022-08-19T07:34:32;100349.38;;;19.33;78.65
48210;BME280;33999;52.252;9.616;2022-08-19T07:37:40;100364.84;;;19.41;78.07
48210;BME280;33999;52.252;9.616;2022-08-19T07:40:45;100369.38;;;19.48;77.01
48210;BME280;33999;52.252;9.616;2022-08-19T07:43:48;100393.00;;;19.56;77.26
48210;BME280;33999;52.252;9.616;2022-08-19T07:46:54;100391.59;;;19.60;77.02
48210;BME280;33999;52.252;9.616;2022-08-19T07:49:57;100386.66;;;19.64;76.85
48210;BME280;33999;52.252;9.616;2022-08-19T07:52:58;100396.03;;;19.69;76.79
48210;BME280;33999;52.252;9.616;2022-08-19T07:56:00;100388.03;;;19.68;76.43
48210;BME280;33999;52.252;9.616;2022-08-19T07:59:04;100390.38;;;19.71;76.09
48210;BME280;33999;52.252;9.616;2022-08-19T08:02:07;100390.88;;;19.74;75.71
48210;BME280;33999;52.252;9.616;2022-08-19T08:05:10;100400.28;;;19.72;75.63
48210;BME280;33999;52.252;9.616;2022-08-19T08:08:30;100396.34;;;19.66;75.95
48210;BME280;33999;52.252;9.616;2022-08-19T08:12:07;100402.69;;;19.67;76.01
48210;BME280;33999;52.252;9.616;2022-08-19T08:15:31;100406.25;;;19.67;75.86
48210;BME280;33999;52.252;9.616;2022-08-19T08:18:33;100399.44;;;19.71;74.96
48210;BME280;33999;52.252;9.616;2022-08-19T08:21:43;100396.50;;;19.73;74.31
48210;BME280;33999;52.252;9.616;2022-08-19T08:24:44;100399.06;;;19.74;74.48
48210;BME280;33999;52.252;9.616;2022-08-19T08:27:46;100403.78;;;19.81;73.70
48210;BME280;33999;52.252;9.616;2022-08-19T08:30:51;100395.13;;;19.77;73.85
48210;BME280;33999;52.252;9.616;2022-08-19T08:33:53;100399.75;;;19.76;73.87
48210;BME280;33999;52.252;9.616;2022-08-19T08:36:54;100404.31;;;19.76;74.36
48210;BME280;33999;52.252;9.616;2022-08-19T08:39:57;100400.88;;;19.82;73.94
48210;BME280;33999;52.252;9.616;2022-08-19T08:46:42;100398.28;;;20.12;73.21
48210;BME280;33999;52.252;9.616;2022-08-19T08:49:54;100394.88;;;20.33;71.26
48210;BME280;33999;52.252;9.616;2022-08-19T08:52:58;100397.16;;;20.44;69.45
48210;BME280;33999;52.252;9.616;2022-08-19T08:56:02;100399.81;;;20.52;68.65
48210;BME280;33999;52.252;9.616;2022-08-19T08:59:16;100405.97;;;20.54;69.15
48210;BME280;33999;52.252;9.616;2022-08-19T09:02:21;100401.84;;;20.58;70.05
48210;BME280;33999;52.252;9.616;2022-08-19T09:05:27;100406.94;;;20.61;69.39
48210;BME280;33999;52.252;9.616;2022-08-19T09:09:01;100416.06;;;20.69;68.19
48210;BME280;33999;52.252;9.616;2022-08-19T09:15:44;100413.06;;;20.78;65.45
48210;BME280;33999;52.252;9.616;2022-08-19T09:18:50;100414.78;;;20.79;65.76
48210;BME280;33999;52.252;9.616;2022-08-19T09:21:55;100404.88;;;20.78;65.75
48210;BME280;33999;52.252;9.616;2022-08-19T09:24:57;100409.22;;;20.88;66.54
48210;BME280;33999;52.252;9.616;2022-08-19T09:28:00;100403.50;;;20.97;64.71
48210;BME280;33999;52.252;9.616;2022-08-19T09:31:19;100394.81;;;21.23;62.86
48210;BME280;33999;52.252;9.616;2022-08-19T09:34:21;100383.59;;;21.48;63.10
48210;BME280;33999;52.252;9.616;2022-08-19T09:37:24;100383.59;;;21.63;62.72
48210;BME280;33999;52.252;9.616;2022-08-19T09:40:29;100388.97;;;21.78;61.43
48210;BME280;33999;52.252;9.616;2022-08-19T09:43:39;100398.63;;;21.95;61.16
48210;BME280;33999;52.252;9.616;2022-08-19T09:46:48;100399.44;;;22.10;61.13
48210;BME280;33999;52.252;9.616;2022-08-19T09:49:50;100391.59;;;22.22;60.05
48210;BME280;33999;52.252;9.616;2022-08-19T09:52:52;100389.56;;;22.16;59.46
48210;BME280;33999;52.252;9.616;2022-08-19T09:55:58;100385.16;;;22.15;59.24
48210;BME280;33999;52.252;9.616;2022-08-19T09:59:01;100387.13;;;22.21;58.85
48210;BME280;33999;52.252;9.616;2022-08-19T10:02:04;100395.41;;;22.28;58.45
48210;BME280;33999;52.252;9.616;2022-08-19T10:05:11;100390.19;;;22.33;58.85
48210;BME280;33999;52.252;9.616;2022-08-19T10:08:34;100396.31;;;22.35;58.10
48210;BME280;33999;52.252;9.616;2022-08-19T10:11:40;100381.84;;;22.41;55.86
48210;BME280;33999;52.252;9.616;2022-08-19T10:14:54;100378.09;;;22.42;54.79
48210;BME280;33999;52.252;9.616;2022-08-19T10:17:57;100384.41;;;22.43;51.74
48210;BME280;33999;52.252;9.616;2022-08-19T10:21:14;100371.38;;;22.45;52.47
48210;BME280;33999;52.252;9.616;2022-08-19T10:24:16;100377.28;;;22.48;54.81
48210;BME280;33999;52.252;9.616;2022-08-19T10:27:18;100376.88;;;22.51;54.14
48210;BME280;33999;52.252;9.616;2022-08-19T10:30:21;100373.72;;;22.54;50.68
48210;BME280;33999;52.252;9.616;2022-08-19T10:33:25;100362.44;;;22.64;51.89
48210;BME280;33999;52.252;9.616;2022-08-19T10:36:47;100365.19;;;22.64;53.48
48210;BME280;33999;52.252;9.616;2022-08-19T10:39:57;100349.00;;;22.69;52.16
48210;BME280;33999;52.252;9.616;2022-08-19T10:42:59;100339.09;;;22.68;49.48
48210;BME280;33999;52.252;9.616;2022-08-19T10:46:01;100340.19;;;22.74;51.72
48210;BME280;33999;52.252;9.616;2022-08-19T10:49:05;100326.72;;;22.79;51.69
48210;BME280;33999;52.252;9.616;2022-08-19T10:52:06;100330.78;;;22.83;51.76
48210;BME280;33999;52.252;9.616;2022-08-19T10:55:33;100327.16;;;22.83;50.83
48210;BME280;33999;52.252;9.616;2022-08-19T10:58:53;100315.41;;;22.89;49.39
48210;BME280;33999;52.252;9.616;2022-08-19T11:01:59;100314.91;;;23.07;48.36
48210;BME280;33999;52.252;9.616;2022-08-19T11:05:02;100316.44;;;23.22;48.87
48210;BME280;33999;52.252;9.616;2022-08-19T11:08:14;100320.06;;;23.30;48.80
48210;BME280;33999;52.252;9.616;2022-08-19T11:11:24;100321.97;;;23.36;46.82
48210;BME280;33999;52.252;9.616;2022-08-19T11:14:26;100315.84;;;23.34;47.41
48210;BME280;33999;52.252;9.616;2022-08-19T11:17:32;100315.19;;;23.25;47.07
48210;BME280;33999;52.252;9.616;2022-08-19T11:20:34;100306.75;;;23.20;47.06
48210;BME280;33999;52.252;9.616;2022-08-19T11:23:36;100306.97;;;23.25;48.42
48210;BME280;33999;52.252;9.616;2022-08-19T11:26:39;100319.22;;;23.29;49.71
48210;BME280;33999;52.252;9.616;2022-08-19T11:29:41;100310.59;;;23.32;49.48
48210;BME280;33999;52.252;9.616;2022-08-19T11:32:42;100303.81;;;23.28;48.38
48210;BME280;33999;52.252;9.616;2022-08-19T11:35:49;100307.38;;;23.29;48.84
48210;BME280;33999;52.252;9.616;2022-08-19T11:38:51;100293.72;;;23.35;48.26
48210;BME280;33999;52.252;9.616;2022-08-19T11:41:54;100288.44;;;23.34;49.01
48210;BME280;33999;52.252;9.616;2022-08-19T11:44:55;100296.66;;;23.34;48.10
48210;BME280;33999;52.252;9.616;2022-08-19T11:47:57;100302.38;;;23.39;47.22
48210;BME280;33999;52.252;9.616;2022-08-19T11:50:59;100301.09;;;23.41;48.45
48210;BME280;33999;52.252;9.616;2022-08-19T11:54:06;100303.22;;;23.39;48.26
48210;BME280;33999;52.252;9.616;2022-08-19T11:57:07;100313.09;;;23.34;47.61
48210;BME280;33999;52.252;9.616;2022-08-19T12:00:10;100305.53;;;23.29;48.27
48210;BME280;33999;52.252;9.616;2022-08-19T12:03:14;100302.97;;;23.28;48.79
48210;BME280;33999;52.252;9.616;2022-08-19T12:06:22;100292.25;;;23.33;48.78
48210;BME280;33999;52.252;9.616;2022-08-19T12:09:26;100296.47;;;23.35;48.68
48210;BME280;33999;52.252;9.616;2022-08-19T12:12:31;100291.41;;;23.32;48.74
48210;BME280;33999;52.252;9.616;2022-08-19T12:15:37;100275.19;;;23.37;48.94
48210;BME280;33999;52.252;9.616;2022-08-19T12:18:39;100272.84;;;23.41;48.50
48210;BME280;33999;52.252;9.616;2022-08-19T12:21:44;100267.81;;;23.44;48.07
48210;BME280;33999;52.252;9.616;2022-08-19T12:24:46;100277.94;;;23.51;47.83
48210;BME280;33999;52.252;9.616;2022-08-19T12:27:48;100273.53;;;23.56;47.55
48210;BME280;33999;52.252;9.616;2022-08-19T12:30:58;100269.97;;;23.69;47.75
48210;BME280;33999;52.252;9.616;2022-08-19T12:33:59;100264.28;;;23.77;46.56
48210;BME280;33999;52.252;9.616;2022-08-19T12:37:05;100262.41;;;23.78;47.24
48210;BME280;33999;52.252;9.616;2022-08-19T12:40:07;100264.13;;;23.85;48.46
48210;BME280;33999;52.252;9.616;2022-08-19T12:43:09;100277.63;;;23.94;47.78
48210;BME280;33999;52.252;9.616;2022-08-19T12:46:12;100277.41;;;24.02;47.61
48210;BME280;33999;52.252;9.616;2022-08-19T12:49:17;100283.94;;;24.07;46.32
48210;BME280;33999;52.252;9.616;2022-08-19T12:52:38;100285.81;;;24.20;46.34
48210;BME280;33999;52.252;9.616;2022-08-19T12:55:43;100273.16;;;24.33;45.43
48210;BME280;33999;52.252;9.616;2022-08-19T12:58:45;100271.25;;;24.40;45.84
48210;BME280;33999;52.252;9.616;2022-08-19T13:01:51;100263.66;;;24.48;46.37
48210;BME280;33999;52.252;9.616;2022-08-19T13:04:53;100255.66;;;24.47;46.39
48210;BME280;33999;52.252;9.616;2022-08-19T13:07:57;100259.00;;;24.56;45.66
48210;BME280;33999;52.252;9.616;2022-08-19T13:11:09;100261.28;;;24.65;45.99
48210;BME280;33999;52.252;9.616;2022-08-19T13:14:13;100262.56;;;24.63;45.44
48210;BME280;33999;52.252;9.616;2022-08-19T13:17:14;100262.78;;;24.61;45.75
48210;BME280;33999;52.252;9.616;2022-08-19T13:20:18;100261.94;;;24.67;45.21
48210;BME280;33999;52.252;9.616;2022-08-19T13:23:21;100257.03;;;24.69;43.82
48210;BME280;33999;52.252;9.616;2022-08-19T13:26:23;100258.50;;;24.72;44.80
48210;BME280;33999;52.252;9.616;2022-08-19T13:29:25;100258.94;;;24.76;44.73
48210;BME280;33999;52.252;9.616;2022-08-19T13:32:45;100257.47;;;24.73;45.18
48210;BME280;33999;52.252;9.616;2022-08-19T13:36:05;100258.50;;;24.72;45.35
48210;BME280;33999;52.252;9.616;2022-08-19T13:39:09;100252.38;;;24.77;44.00
48210;BME280;33999;52.252;9.616;2022-08-19T13:42:11;100246.44;;;24.86;44.49
48210;BME280;33999;52.252;9.616;2022-08-19T13:45:16;100251.41;;;25.03;44.71
48210;BME280;33999;52.252;9.616;2022-08-19T13:48:19;100256.50;;;25.06;42.96
48210;BME280;33999;52.252;9.616;2022-08-19T13:51:21;100261.13;;;25.05;42.48
48210;BME280;33999;52.252;9.616;2022-08-19T13:54:23;100255.88;;;25.04;41.95
48210;BME280;33999;52.252;9.616;2022-08-19T13:57:24;100250.56;;;25.09;41.86
48210;BME280;33999;52.252;9.616;2022-08-19T14:00:31;100251.41;;;25.16;42.20
48210;BME280;33999;52.252;9.616;2022-08-19T14:03:34;100249.25;;;25.18;42.84
48210;BME280;33999;52.252;9.616;2022-08-19T14:06:36;100249.44;;;25.23;42.36
48210;BME280;33999;52.252;9.616;2022-08-19T14:09:37;100246.03;;;25.28;42.17
48210;BME280;33999;52.252;9.616;2022-08-19T14:12:39;100245.59;;;25.31;42.32
48210;BME280;33999;52.252;9.616;2022-08-19T14:15:41;100245.84;;;25.29;42.08
48210;BME280;33999;52.252;9.616;2022-08-19T14:18:43;100250.88;;;25.32;41.70
48210;BME280;33999;52.252;9.616;2022-08-19T14:21:47;100242.00;;;25.30;41.65
48210;BME280;33999;52.252;9.616;2022-08-19T14:24:48;100239.50;;;25.29;40.77
48210;BME280;33999;52.252;9.616;2022-08-19T14:27:51;100246.28;;;25.26;41.38
48210;BME280;33999;52.252;9.616;2022-08-19T14:30:53;100238.25;;;25.25;41.30
48210;BME280;33999;52.252;9.616;2022-08-19T14:33:57;100236.56;;;25.24;42.07
48210;BME280;33999;52.252;9.616;2022-08-19T14:36:59;100242.25;;;25.29;41.49
48210;BME280;33999;52.252;9.616;2022-08-19T14:40:03;100243.47;;;25.33;41.55
48210;BME280;33999;52.252;9.616;2022-08-19T14:43:05;100242.66;;;25.26;42.33
48210;BME280;33999;52.252;9.616;2022-08-19T14:46:07;100239.91;;;25.26;41.79
48210;BME280;33999;52.252;9.616;2022-08-19T14:49:11;100248.97;;;25.33;42.11
48210;BME280;33999;52.252;9.616;2022-08-19T14:52:13;100245.34;;;25.39;42.13
48210;BME280;33999;52.252;9.616;2022-08-19T14:55:16;100246.38;;;25.45;40.77
48210;BME280;33999;52.252;9.616;2022-08-19T14:58:18;100246.13;;;25.46;41.38
48210;BME280;33999;52.252;9.616;2022-08-19T15:01:30;100248.66;;;25.48;41.62
48210;BME280;33999;52.252;9.616;2022-08-19T15:04:32;100255.19;;;25.53;41.09
48210;BME280;33999;52.252;9.616;2022-08-19T15:07:34;100257.72;;;25.55;40.60
48210;BME280;33999;52.252;9.616;2022-08-19T15:10:38;100260.03;;;25.58;40.67
48210;BME280;33999;52.252;9.616;2022-08-19T15:13:40;100258.78;;;25.54;40.64
48210;BME280;33999;52.252;9.616;2022-08-19T15:16:42;100261.97;;;25.51;40.84
48210;BME280;33999;52.252;9.616;2022-08-19T15:19:45;100260.75;;;25.47;40.54
48210;BME280;33999;52.252;9.616;2022-08-19T15:22:47;100257.56;;;25.43;40.96
48210;BME280;33999;52.252;9.616;2022-08-19T15:25:48;100260.31;;;25.43;40.12
48210;BME280;33999;52.252;9.616;2022-08-19T15:28:54;100271.31;;;25.43;40.34
48210;BME280;33999;52.252;9.616;2022-08-19T15:31:56;100260.06;;;25.51;40.27
48210;BME280;33999;52.252;9.616;2022-08-19T15:34:59;100265.91;;;25.62;38.90
48210;BME280;33999;52.252;9.616;2022-08-19T15:38:04;100266.53;;;25.64;40.11
48210;BME280;33999;52.252;9.616;2022-08-19T15:41:32;100264.03;;;25.62;40.16
48210;BME280;33999;52.252;9.616;2022-08-19T15:44:37;100261.53;;;25.54;40.54
48210;BME280;33999;52.252;9.616;2022-08-19T15:47:39;100258.38;;;25.50;40.11
48210;BME280;33999;52.252;9.616;2022-08-19T15:50:41;100257.56;;;25.43;40.72
48210;BME280;33999;52.252;9.616;2022-08-19T15:53:43;100259.94;;;25.40;41.06
48210;BME280;33999;52.252;9.616;2022-08-19T15:56:44;100261.44;;;25.35;40.36
48210;BME280;33999;52.252;9.616;2022-08-19T16:00:05;100259.13;;;25.32;41.04
48210;BME280;33999;52.252;9.616;2022-08-19T16:03:27;100258.31;;;25.25;40.74
48210;BME280;33999;52.252;9.616;2022-08-19T16:06:53;100260.84;;;25.27;40.63
48210;BME280;33999;52.252;9.616;2022-08-19T16:09:55;100259.16;;;25.26;40.90
48210;BME280;33999;52.252;9.616;2022-08-19T16:12:57;100260.88;;;25.20;41.32
48210;BME280;33999;52.252;9.616;2022-08-19T16:15:59;100253.50;;;25.14;41.33